Airfield :
LOGIN :

Register | Disclaimer

   EN    FR    IT 

 










Legend :    VFR   Marginal VFR   IFR   Intensive IFR   Very Intensive IFR
Visi :
Ceiling :
>= 8 km
>= 3000ft
5 to 8 km
1000 to 3000 ft
1500m to 5 km
500 to 1000 ft
800 to 1500m
200 to 500 ft
< 800m
< 200 ft
Symbols :   Thunderstorms  Fog  Heavy snow  Heavy precipitations  Wind > 20 kt
SIGMETs :     Misc.  Thunderstorms  Icing  Turbulence  Mountain Waves  Volcanic Ashes






- Airport Elevation : 2595 ft
- IATA code : SLM


LESA - Salamanca Matacan

CURRENT METAR :
  • 011830Z AUTO 26007KT CAVOK 10/01 Q1010

EXPIRED METARs :
  • 011800Z AUTO 28006KT 250V310 CAVOK 12/00 Q1010
  • 011730Z AUTO 27007KT 240V300 CAVOK 12/02 Q1010
  • 011700Z AUTO 24007KT 200V260 CAVOK 12/M01 Q1010
  • 011630Z AUTO 28006KT 240V340 9999 FEW045 13/01 Q1010
  • 011600Z AUTO 28006KT 230V320 CAVOK 13/02 Q1010

TAF TAF LESA
Valid from the 01 at 18:00 until the 02 at 18:00 UTC


011700Z 0118/0218 VRB05KT 9999 SCT020 SCT035 TX12/0215Z TNM01/0206Z
PROB40
TEMPO 0200/0209 3000 BR BCFG BKN007
PROB30
TEMPO 0203/0207 0300 FG VV001
TEMPO 0209/0212 04010KT
PROB40
TEMPO 0210/0212 3000 DZRA BR BKN014



MET'MAP, your aeronautical weather chart ! - Copyright ORBIFLY December 2007 - Disclaimer

ORBIFLY MET'MAP TEAM :

Programming & Development : Alexandra Zaïnal
Concept & original design : Baudouin d'Aumeries
Assistance for programming : Marc-Olivier Méhu
Technical & hardware support : Manuel Goepfert

Contact : metmap@orbifly.com




SOURCES & CREDITS :

   NOAA